Time;durP1;ratioP1;P1;durP2;ratioP2;P2;SDS_P1;SDS_P2;PMS_P1;PMS_P2;Temp;Humidity;BMP_temperature;BMP_pressure;BME280_temperature;BME280_humidity;BME280_pressure;Samples;Min_cycle;Max_cycle;Signal;HPM_P1;HPM_P2
2021/05/06 00:10:11;;;;;;;2.22;2.13;;;6.10;99.90;;;;;;5049583;28;20922;-69
2021/05/06 00:34:23;;;;;;;3.15;2.30;;;6.40;99.90;;;;;;5040015;28;20203;-69
2021/05/06 00:36:50;;;;;;;3.25;2.53;;;6.40;99.90;;;;;;5045790;28;20227;-69
2021/05/06 00:39:19;;;;;;;2.90;2.70;;;6.40;99.90;;;;;;5050541;28;20209;-68
2021/05/06 00:41:56;;;;;;;4.63;4.22;;;6.40;99.90;;;;;;5055192;28;20210;-69
2021/05/06 00:55:51;;;;;;;2.72;2.63;;;6.40;99.90;;;;;;5103620;28;20311;-70
2021/05/06 00:58:50;;;;;;;3.22;2.50;;;6.40;99.90;;;;;;5103747;28;20661;-69
2021/05/06 01:04:18;;;;;;;3.33;2.67;;;6.40;99.90;;;;;;5080549;28;20802;-70
2021/05/06 01:06:53;;;;;;;3.30;3.00;;;6.40;99.90;;;;;;5111022;28;20216;-70
2021/05/06 01:09:21;;;;;;;3.22;2.92;;;6.30;99.90;;;;;;5101465;28;20277;-70
2021/05/06 01:11:52;;;;;;;3.35;2.95;;;6.30;99.90;;;;;;5103874;28;20200;-69
2021/05/06 01:14:19;;;;;;;3.88;3.53;;;6.20;99.90;;;;;;5103268;28;20203;-69
2021/05/06 01:16:45;;;;;;;3.83;3.00;;;6.20;99.90;;;;;;5101357;28;20203;-69
2021/05/06 01:19:12;;;;;;;3.38;3.08;;;6.20;99.90;;;;;;5100650;28;20351;-69
2021/05/06 01:21:40;;;;;;;3.83;3.33;;;6.20;99.90;;;;;;5099256;28;20295;-70
2021/05/06 01:24:07;;;;;;;3.70;3.50;;;6.20;99.90;;;;;;5103874;28;20730;-70
2021/05/06 01:26:36;;;;;;;3.05;2.85;;;6.20;99.90;;;;;;5094943;28;20219;-70
2021/05/06 01:29:07;;;;;;;4.75;3.70;;;6.20;99.90;;;;;;5097376;28;20310;-69
2021/05/06 01:31:38;;;;;;;3.25;3.05;;;6.10;99.90;;;;;;5107283;28;20247;-70
2021/05/06 01:34:10;;;;;;;3.00;2.80;;;6.10;99.90;;;;;;5108245;28;20294;-70
2021/05/06 01:36:39;;;;;;;3.05;2.80;;;6.10;99.90;;;;;;5110405;27;20210;-69
2021/05/06 01:39:21;;;;;;;3.55;3.25;;;6.00;99.90;;;;;;5103557;28;20749;-70
2021/05/06 01:41:52;;;;;;;3.60;3.00;;;6.10;99.90;;;;;;5107965;27;20211;-69
2021/05/06 01:44:35;;;;;;;6.90;3.78;;;6.00;99.90;;;;;;5094857;28;20308;-70
2021/05/06 01:47:09;;;;;;;2.67;2.47;;;6.00;99.90;;;;;;5096163;28;20231;-70
2021/05/06 01:49:50;;;;;;;2.92;2.72;;;6.10;99.90;;;;;;5099779;28;20747;-70
2021/05/06 02:00:44;;;;;;;4.32;3.33;;;6.20;99.90;;;;;;5044343;28;20605;-69
2021/05/06 02:03:10;;;;;;;3.30;2.75;;;6.30;99.90;;;;;;5087875;28;20199;-69
2021/05/06 02:05:37;;;;;;;3.17;2.97;;;6.30;99.90;;;;;;5087654;28;20236;-69
2021/05/06 02:08:04;;;;;;;3.80;3.50;;;6.30;99.90;;;;;;5092371;28;20203;-69
2021/05/06 02:10:31;;;;;;;4.63;4.22;;;6.30;99.90;;;;;;5088616;28;20207;-69
2021/05/06 02:12:58;;;;;;;4.32;3.33;;;6.40;99.90;;;;;;5085472;28;20202;-69
2021/05/06 02:15:26;;;;;;;4.47;3.47;;;6.40;99.90;;;;;;5082247;28;20196;-69
2021/05/06 02:17:54;;;;;;;4.85;2.75;;;6.50;99.90;;;;;;5086025;28;20205;-70
2021/05/06 02:20:21;;;;;;;2.75;2.55;;;6.50;99.90;;;;;;5094548;28;20196;-69
2021/05/06 02:22:48;;;;;;;2.80;2.60;;;6.50;99.90;;;;;;5091305;28;20224;-69
2021/05/06 02:25:15;;;;;;;3.03;2.83;;;6.40;99.90;;;;;;5086410;28;20223;-69
2021/05/06 02:27:42;;;;;;;2.97;2.75;;;6.50;99.90;;;;;;5088289;28;20700;-69
2021/05/06 02:30:10;;;;;;;5.15;3.15;;;6.50;99.90;;;;;;5085312;28;20649;-69
2021/05/06 02:32:37;;;;;;;2.95;2.75;;;6.50;99.90;;;;;;5088766;28;20209;-69
2021/05/06 02:35:05;;;;;;;2.85;2.63;;;6.50;99.90;;;;;;5087917;28;20289;-69
2021/05/06 02:37:31;;;;;;;3.17;2.78;;;6.50;99.90;;;;;;5091142;28;20204;-69
2021/05/06 02:39:58;;;;;;;2.95;2.75;;;6.60;99.90;;;;;;5088273;28;20209;-69
2021/05/06 02:42:24;;;;;;;3.15;2.58;;;6.60;99.90;;;;;;5084484;28;20839;-69
2021/05/06 02:44:51;;;;;;;3.08;2.85;;;6.60;99.90;;;;;;5076663;28;20560;-69
2021/05/06 02:47:18;;;;;;;4.55;2.70;;;6.50;99.90;;;;;;5086044;28;20243;-69
2021/05/06 02:49:46;;;;;;;3.80;2.88;;;6.50;99.90;;;;;;5086670;28;20394;-69
2021/05/06 02:52:16;;;;;;;3.35;2.72;;;6.50;99.90;;;;;;5086232;28;20841;-69
2021/05/06 02:54:46;;;;;;;2.75;2.55;;;6.40;99.90;;;;;;5085664;28;20196;-69
2021/05/06 02:57:21;;;;;;;3.58;2.90;;;6.40;99.90;;;;;;5086389;28;20213;-69
2021/05/06 03:02:50;;;;;;;3.35;2.88;;;6.40;99.90;;;;;;5038035;28;20691;-69
2021/05/06 03:05:19;;;;;;;3.30;3.03;;;6.40;99.90;;;;;;5086481;28;20474;-69
2021/05/06 03:07:52;;;;;;;3.30;3.05;;;6.50;99.90;;;;;;5080068;28;20200;-69
2021/05/06 03:10:29;;;;;;;3.05;2.70;;;6.50;99.90;;;;;;5083141;28;20202;-69
2021/05/06 03:23:48;;;;;;;4.20;2.78;;;6.40;99.90;;;;;;5040807;28;20235;-70
2021/05/06 03:26:15;;;;;;;3.15;2.95;;;6.50;99.90;;;;;;5079582;28;20254;-69
2021/05/06 03:28:45;;;;;;;4.00;3.55;;;6.40;99.90;;;;;;5086628;28;20254;-69
2021/05/06 03:31:25;;;;;;;3.85;3.55;;;6.40;99.90;;;;;;5082692;28;20705;-69
2021/05/06 03:42:08;;;;;;;2.80;2.60;;;6.30;99.90;;;;;;5079130;28;20301;-69
2021/05/06 03:45:01;;;;;;;2.72;2.53;;;6.20;99.90;;;;;;5083830;28;20204;-69
2021/05/06 04:12:42;;;;;;;4.65;3.97;;;5.80;99.90;;;;;;5079879;28;20721;-69
2021/05/06 04:17:59;;;;;;;3.63;3.33;;;5.90;99.90;;;;;;5075440;28;20302;-68
2021/05/06 04:26:08;;;;;;;3.90;3.50;;;5.90;99.90;;;;;;5079885;28;20962;-69
2021/05/06 04:36:51;;;;;;;4.07;3.78;;;5.90;99.90;;;;;;5087174;28;20233;-69
2021/05/06 04:39:26;;;;;;;4.60;3.83;;;6.00;99.90;;;;;;5086241;28;20258;-69
2021/05/06 04:41:59;;;;;;;4.63;4.15;;;6.20;99.90;;;;;;5083032;28;20208;-69
2021/05/06 04:55:25;;;;;;;4.00;3.70;;;7.50;99.90;;;;;;5080780;28;20295;-69
2021/05/06 04:58:04;;;;;;;4.05;3.17;;;7.80;99.90;;;;;;5086595;28;20200;-69
2021/05/06 05:03:40;;;;;;;4.43;4.00;;;8.00;99.90;;;;;;5020129;28;20687;-69
2021/05/06 05:06:08;;;;;;;4.15;3.53;;;8.00;99.90;;;;;;5069501;28;20220;-69
2021/05/06 05:08:40;;;;;;;4.57;3.45;;;8.20;99.90;;;;;;5070993;28;20208;-69
2021/05/06 05:25:00;;;;;;;2.60;2.40;;;11.50;95.40;;;;;;5072943;28;20203;-70
2021/05/06 05:27:27;;;;;;;3.13;2.70;;;11.20;95.30;;;;;;5076385;28;20300;-66
2021/05/06 05:29:54;;;;;;;5.55;3.10;;;10.20;96.30;;;;;;5072792;28;20197;-70
2021/05/06 05:32:21;;;;;;;3.15;2.55;;;9.90;98.10;;;;;;5086741;28;20242;-70
2021/05/06 05:34:53;;;;;;;3.85;2.80;;;9.60;98.60;;;;;;5089063;28;20757;-71
2021/05/06 05:37:21;;;;;;;4.07;2.83;;;9.40;99.10;;;;;;5082503;28;20208;-70
2021/05/06 05:40:02;;;;;;;5.50;3.33;;;9.00;99.90;;;;;;5090301;28;20960;-70
2021/05/06 05:42:39;;;;;;;3.45;2.90;;;9.00;99.90;;;;;;5086385;28;20215;-71
2021/05/06 05:56:15;;;;;;;6.60;3.45;;;8.50;99.90;;;;;;5071740;28;20239;-70
2021/05/06 05:58:43;;;;;;;5.50;3.95;;;8.60;99.90;;;;;;5085123;28;20232;-71
2021/05/06 06:01:09;;;;;;;3.78;3.38;;;8.60;99.90;;;;;;5082957;28;20674;-70
2021/05/06 06:03:35;;;;;;;4.18;3.85;;;8.50;99.90;;;;;;5084345;28;20288;-71
2021/05/06 06:06:02;;;;;;;4.00;3.70;;;8.30;99.90;;;;;;5083829;28;20202;-71
2021/05/06 06:08:31;;;;;;;4.75;4.40;;;8.30;99.90;;;;;;5087540;28;20296;-71
2021/05/06 06:10:57;;;;;;;4.43;3.95;;;8.00;99.90;;;;;;5081351;28;20228;-70
2021/05/06 06:13:25;;;;;;;6.22;4.50;;;8.00;99.90;;;;;;5087897;28;20196;-70
2021/05/06 06:15:59;;;;;;;6.03;4.57;;;7.90;99.90;;;;;;5084842;28;20224;-70
2021/05/06 06:18:29;;;;;;;4.28;3.25;;;8.10;99.90;;;;;;5079147;28;20204;-71
2021/05/06 06:21:02;;;;;;;4.47;3.22;;;8.10;99.90;;;;;;5084867;28;20257;-70
2021/05/06 06:23:28;;;;;;;3.90;3.50;;;8.10;99.90;;;;;;5084050;28;20200;-70
2021/05/06 06:25:55;;;;;;;3.83;3.00;;;8.20;99.90;;;;;;5079868;28;20300;-71
2021/05/06 06:28:21;;;;;;;4.47;3.80;;;8.00;99.90;;;;;;5088410;28;20208;-70
2021/05/06 06:30:48;;;;;;;3.70;3.45;;;8.00;99.90;;;;;;5087737;28;20219;-70
2021/05/06 06:33:15;;;;;;;5.82;3.33;;;8.00;99.90;;;;;;5076669;28;20329;-71
2021/05/06 06:35:42;;;;;;;7.70;4.05;;;7.80;99.90;;;;;;5083775;28;20259;-70
2021/05/06 06:38:08;;;;;;;3.78;3.47;;;7.70;99.90;;;;;;5083411;28;20212;-70
2021/05/06 06:40:34;;;;;;;3.65;3.30;;;7.70;99.90;;;;;;5085302;28;20200;-70
2021/05/06 06:43:01;;;;;;;4.40;3.88;;;7.70;99.90;;;;;;5085329;28;20288;-71
2021/05/06 06:45:27;;;;;;;3.67;3.38;;;7.70;99.90;;;;;;5077287;28;20759;-70
2021/05/06 06:47:54;;;;;;;6.60;3.53;;;7.80;99.90;;;;;;5074221;28;20288;-70
2021/05/06 06:50:22;;;;;;;3.65;3.28;;;7.90;99.90;;;;;;5075540;28;20201;-71
2021/05/06 06:52:48;;;;;;;3.72;3.25;;;8.00;99.90;;;;;;5079227;28;20215;-71
2021/05/06 06:55:15;;;;;;;5.20;3.95;;;8.20;99.90;;;;;;5083069;28;20212;-71
2021/05/06 06:57:41;;;;;;;3.97;3.50;;;8.30;99.90;;;;;;5086053;28;20224;-70
2021/05/06 07:00:09;;;;;;;3.75;3.38;;;8.30;99.90;;;;;;5086704;28;20243;-71
2021/05/06 07:02:35;;;;;;;3.75;3.40;;;8.30;99.90;;;;;;5083064;28;20204;-71
2021/05/06 07:05:02;;;;;;;3.80;3.17;;;8.20;99.90;;;;;;5086019;28;20621;-72
2021/05/06 07:07:29;;;;;;;5.15;4.00;;;8.20;99.90;;;;;;5082544;28;21045;-70
2021/05/06 07:09:56;;;;;;;4.50;3.97;;;8.20;99.90;;;;;;5082937;28;20721;-70
2021/05/06 07:12:22;;;;;;;9.75;4.50;;;8.20;99.90;;;;;;5087730;28;20200;-70
2021/05/06 07:14:48;;;;;;;4.13;3.80;;;8.30;99.90;;;;;;5087128;28;20247;-70
2021/05/06 07:17:18;;;;;;;5.60;4.30;;;8.60;99.90;;;;;;5081865;28;20234;-70
2021/05/06 07:19:45;;;;;;;5.50;4.07;;;8.60;99.90;;;;;;5083807;28;20257;-70
2021/05/06 07:22:12;;;;;;;4.20;3.80;;;8.70;99.90;;;;;;5076530;28;20266;-70
2021/05/06 07:24:40;;;;;;;4.32;3.95;;;8.50;99.90;;;;;;5082234;28;20573;-70
2021/05/06 07:27:06;;;;;;;3.70;3.00;;;8.60;99.90;;;;;;5083489;28;20208;-70
2021/05/06 07:29:34;;;;;;;4.22;3.55;;;8.70;99.90;;;;;;5076661;28;20205;-70
2021/05/06 07:32:00;;;;;;;3.67;3.30;;;8.70;99.90;;;;;;5082864;28;20196;-70
2021/05/06 07:34:27;;;;;;;3.22;3.03;;;8.80;99.90;;;;;;5079743;28;20209;-70
2021/05/06 07:36:53;;;;;;;3.80;3.50;;;8.80;99.90;;;;;;5075128;28;20217;-70
2021/05/06 07:39:19;;;;;;;4.05;3.65;;;8.90;99.90;;;;;;5079335;28;20221;-70
2021/05/06 07:41:47;;;;;;;4.55;3.55;;;9.00;99.90;;;;;;5080559;28;20237;-70
2021/05/06 07:44:13;;;;;;;3.35;3.10;;;9.10;99.90;;;;;;5076487;28;20701;-70
2021/05/06 07:46:39;;;;;;;3.70;3.40;;;9.20;99.90;;;;;;5084474;28;20215;-70
2021/05/06 07:49:06;;;;;;;5.50;3.95;;;9.40;99.90;;;;;;5078798;28;20200;-70
2021/05/06 07:51:32;;;;;;;4.32;3.58;;;9.40;99.90;;;;;;5084783;28;20708;-70
2021/05/06 07:54:05;;;;;;;3.03;2.83;;;9.40;99.90;;;;;;5085137;28;20220;-70
2021/05/06 07:56:31;;;;;;;4.47;3.22;;;9.50;99.90;;;;;;5091397;28;20310;-70
2021/05/06 07:58:59;;;;;;;3.85;3.42;;;9.60;99.90;;;;;;5082677;28;20809;-70
2021/05/06 08:01:25;;;;;;;2.88;2.67;;;9.80;99.90;;;;;;5079171;28;20673;-70
2021/05/06 08:03:53;;;;;;;4.10;2.97;;;10.10;99.90;;;;;;5077747;28;20342;-70
2021/05/06 08:06:20;;;;;;;4.05;2.75;;;10.20;99.90;;;;;;5084853;28;20245;-70
2021/05/06 08:08:47;;;;;;;3.28;2.78;;;10.40;99.70;;;;;;5082412;28;20671;-70
2021/05/06 08:11:14;;;;;;;3.40;2.65;;;10.50;99.50;;;;;;5078408;28;20211;-70
2021/05/06 08:13:41;;;;;;;3.10;2.80;;;10.60;99.60;;;;;;5085505;28;20200;-70
2021/05/06 08:16:09;;;;;;;2.35;2.15;;;10.60;99.20;;;;;;5072270;28;20779;-70
2021/05/06 08:18:36;;;;;;;3.20;2.70;;;10.50;98.80;;;;;;5079338;28;20208;-70
2021/05/06 08:21:03;;;;;;;4.53;3.00;;;10.50;98.60;;;;;;5087931;28;20212;-70
2021/05/06 08:23:32;;;;;;;5.40;2.70;;;10.40;98.70;;;;;;5077651;28;20294;-70
2021/05/06 08:25:58;;;;;;;6.55;2.35;;;10.40;98.80;;;;;;5084132;28;20189;-70
2021/05/06 08:28:24;;;;;;;2.85;2.42;;;10.50;99.10;;;;;;5075219;28;20201;-70
2021/05/06 08:30:51;;;;;;;3.85;2.40;;;10.50;98.70;;;;;;5075619;28;20196;-70
2021/05/06 08:33:18;;;;;;;3.00;2.50;;;10.60;99.00;;;;;;5075487;28;20226;-70
2021/05/06 08:35:44;;;;;;;2.85;2.65;;;10.60;97.80;;;;;;5085715;28;20219;-71
2021/05/06 08:38:10;;;;;;;3.25;2.70;;;10.60;98.50;;;;;;5081929;28;20212;-70
2021/05/06 08:40:37;;;;;;;3.40;3.10;;;10.50;98.20;;;;;;5078778;28;20208;-71
2021/05/06 08:43:08;;;;;;;3.75;2.80;;;10.40;97.90;;;;;;5072449;28;20200;-70
2021/05/06 08:45:41;;;;;;;3.25;2.95;;;10.40;98.90;;;;;;5079061;28;20294;-70
2021/05/06 08:48:08;;;;;;;3.80;3.10;;;10.40;98.80;;;;;;5076992;28;20834;-70
2021/05/06 08:50:36;;;;;;;3.10;2.58;;;10.50;98.10;;;;;;5079957;28;20204;-70
2021/05/06 08:53:02;;;;;;;5.00;2.70;;;10.50;97.70;;;;;;5077621;28;20545;-70
2021/05/06 08:55:29;;;;;;;4.85;2.58;;;10.50;96.90;;;;;;5079435;28;20915;-70
2021/05/06 08:57:55;;;;;;;6.18;3.17;;;10.50;97.40;;;;;;5082879;28;20263;-70
2021/05/06 09:00:22;;;;;;;2.80;2.60;;;10.40;96.10;;;;;;5077893;28;20197;-70
2021/05/06 09:02:48;;;;;;;3.65;2.80;;;10.50;96.80;;;;;;5083235;28;20575;-70
2021/05/06 09:05:15;;;;;;;5.53;3.00;;;10.50;96.80;;;;;;5084867;28;20257;-70
2021/05/06 09:07:46;;;;;;;3.35;2.58;;;10.50;96.70;;;;;;5081373;28;20196;-70
2021/05/06 09:10:33;;;;;;;3.30;2.50;;;10.50;97.40;;;;;;5087258;28;20204;-70
2021/05/06 09:12:59;;;;;;;2.20;2.00;;;10.30;96.30;;;;;;5080521;28;20576;-70
2021/05/06 09:15:26;;;;;;;5.30;3.05;;;10.10;96.00;;;;;;5081638;28;20665;-70
2021/05/06 09:17:53;;;;;;;3.80;3.50;;;10.10;98.30;;;;;;5086932;28;20599;-70
2021/05/06 09:20:21;;;;;;;5.95;3.33;;;10.20;97.30;;;;;;5081966;28;20200;-70
2021/05/06 09:22:49;;;;;;;4.28;3.00;;;10.10;98.30;;;;;;5077118;28;20205;-70
2021/05/06 09:25:27;;;;;;;4.85;2.45;;;10.10;97.80;;;;;;5086525;28;20204;-70
2021/05/06 09:28:12;;;;;;;3.25;3.05;;;10.30;97.90;;;;;;5082287;28;20196;-70
2021/05/06 09:30:49;;;;;;;3.53;2.90;;;10.40;97.50;;;;;;5084513;28;20240;-70
2021/05/06 09:33:19;;;;;;;3.03;2.83;;;10.40;97.70;;;;;;5088218;28;20196;-70
2021/05/06 09:35:47;;;;;;;6.85;3.08;;;10.10;99.30;;;;;;5093279;28;20203;-70
2021/05/06 09:38:39;;;;;;;8.40;2.90;;;10.00;99.40;;;;;;5086064;28;20197;-70
2021/05/06 09:41:07;;;;;;;3.90;3.15;;;9.80;99.90;;;;;;5067300;28;20204;-70
2021/05/06 09:43:38;;;;;;;4.65;3.25;;;9.80;99.90;;;;;;5083635;28;20240;-70
2021/05/06 09:46:04;;;;;;;4.60;4.20;;;9.70;99.90;;;;;;5087240;28;20216;-70
2021/05/06 09:48:31;;;;;;;3.92;3.20;;;9.70;99.90;;;;;;5088744;28;20693;-70
2021/05/06 09:51:03;;;;;;;5.97;3.60;;;9.50;99.90;;;;;;5089121;28;20204;-70
2021/05/06 09:53:32;;;;;;;3.78;3.25;;;9.30;99.90;;;;;;5088210;28;20323;-70
2021/05/06 09:56:01;;;;;;;4.18;3.47;;;9.30;99.90;;;;;;5085174;28;20330;-70
2021/05/06 09:58:31;;;;;;;4.40;3.30;;;9.30;99.90;;;;;;5087918;28;20231;-70
2021/05/06 10:00:58;;;;;;;7.13;3.85;;;9.30;99.90;;;;;;5087641;28;20461;-70
2021/05/06 10:03:33;;;;;;;4.03;3.63;;;9.40;99.90;;;;;;5087299;28;20207;-69
2021/05/06 10:06:11;;;;;;;4.40;3.22;;;9.30;99.90;;;;;;5080033;28;20200;-69
2021/05/06 10:08:38;;;;;;;3.88;3.55;;;9.30;99.90;;;;;;5087372;28;20239;-70
2021/05/06 10:11:12;;;;;;;9.20;4.53;;;9.30;99.90;;;;;;5083023;28;20204;-70
2021/05/06 10:13:40;;;;;;;4.10;3.70;;;9.30;99.90;;;;;;5079529;28;20223;-70
2021/05/06 10:16:08;;;;;;;8.68;4.25;;;9.30;99.90;;;;;;5084552;28;20450;-70
2021/05/06 10:18:38;;;;;;;6.10;4.28;;;9.30;99.90;;;;;;5083356;28;20295;-70
2021/05/06 10:21:04;;;;;;;3.55;3.25;;;9.20;99.90;;;;;;5084220;28;20688;-70
2021/05/06 10:23:31;;;;;;;3.53;3.20;;;9.20;99.90;;;;;;5087990;28;20212;-70
2021/05/06 10:25:57;;;;;;;3.15;2.95;;;9.30;99.90;;;;;;5086158;28;20204;-70
2021/05/06 10:28:25;;;;;;;2.30;2.20;;;9.30;99.90;;;;;;5087147;28;20210;-70
2021/05/06 10:30:54;;;;;;;4.07;2.95;;;9.30;99.90;;;;;;5074062;28;20685;-70
2021/05/06 10:33:23;;;;;;;3.58;3.28;;;9.40;99.90;;;;;;5087737;28;20312;-70
2021/05/06 10:35:50;;;;;;;3.05;2.75;;;9.50;99.90;;;;;;5084795;28;20303;-69
2021/05/06 10:38:18;;;;;;;2.85;2.20;;;9.60;99.90;;;;;;5078593;28;20739;-71
2021/05/06 10:40:44;;;;;;;2.30;2.20;;;9.70;99.90;;;;;;5075426;28;20196;-70
2021/05/06 10:43:51;;;;;;;4.18;3.80;;;9.80;99.90;;;;;;5078828;28;20228;-70
2021/05/06 10:46:17;;;;;;;2.83;2.63;;;9.90;99.90;;;;;;5076391;28;20695;-70
2021/05/06 10:49:01;;;;;;;3.58;2.67;;;9.90;99.90;;;;;;5088494;28;21011;-70
2021/05/06 10:51:29;;;;;;;2.42;2.22;;;9.90;99.90;;;;;;5086167;28;20315;-70
2021/05/06 10:53:56;;;;;;;2.30;2.20;;;9.90;99.90;;;;;;5086269;28;20295;-70
2021/05/06 10:56:23;;;;;;;3.03;2.50;;;10.00;99.90;;;;;;5089914;28;20266;-70
2021/05/06 10:58:50;;;;;;;4.15;3.00;;;10.10;99.90;;;;;;5086831;28;20852;-69
2021/05/06 11:01:21;;;;;;;7.90;3.30;;;10.20;99.90;;;;;;5084295;28;20619;-70
2021/05/06 11:04:05;;;;;;;2.20;2.00;;;10.20;99.90;;;;;;5081450;28;20214;-70
2021/05/06 11:06:36;;;;;;;3.08;2.83;;;10.30;99.90;;;;;;5087521;28;20208;-70
2021/05/06 11:09:29;;;;;;;6.13;3.45;;;10.30;99.90;;;;;;5077789;28;20255;-70
2021/05/06 11:12:18;;;;;;;4.03;3.72;;;10.40;99.90;;;;;;5080541;28;20196;-70
2021/05/06 11:15:30;;;;;;;3.22;2.92;;;10.60;99.90;;;;;;5085014;28;20671;-70
2021/05/06 11:18:00;;;;;;;2.60;2.00;;;10.70;99.90;;;;;;5082756;28;20258;-70
2021/05/06 11:20:48;;;;;;;2.42;1.70;;;10.80;99.90;;;;;;5093431;28;20223;-70
2021/05/06 11:23:32;;;;;;;1.60;1.50;;;10.90;99.80;;;;;;5093705;28;20205;-70
2021/05/06 11:26:10;;;;;;;2.28;1.40;;;11.00;99.60;;;;;;5082398;28;20650;-70
2021/05/06 11:28:47;;;;;;;2.40;1.85;;;11.30;99.40;;;;;;5076056;28;20208;-70
2021/05/06 11:31:34;;;;;;;1.30;1.30;;;11.40;98.70;;;;;;5079338;28;20208;-70
2021/05/06 11:34:29;;;;;;;1.30;1.20;;;11.40;97.70;;;;;;5083733;28;20200;-70
2021/05/06 11:37:10;;;;;;;1.00;1.00;;;11.40;98.10;;;;;;5087596;28;20246;-70
2021/05/06 11:39:56;;;;;;;1.55;1.05;;;11.60;97.60;;;;;;5080543;28;20304;-70
2021/05/06 11:42:24;;;;;;;1.92;1.30;;;11.60;97.60;;;;;;5069414;28;20196;-71
2021/05/06 11:45:25;;;;;;;1.27;1.17;;;11.60;97.80;;;;;;5088870;28;20204;-70
2021/05/06 11:47:53;;;;;;;1.27;1.17;;;11.50;97.00;;;;;;5093183;28;20349;-71
2021/05/06 11:50:29;;;;;;;1.67;1.00;;;11.50;97.30;;;;;;5089074;28;20208;-71
2021/05/06 11:52:58;;;;;;;1.17;1.13;;;11.60;96.20;;;;;;5083720;28;20294;-70
2021/05/06 11:55:33;;;;;;;1.50;1.40;;;11.80;96.90;;;;;;5074612;28;20208;-71
2021/05/06 11:58:02;;;;;;;1.20;1.20;;;11.90;97.40;;;;;;5082693;28;20216;-68
2021/05/06 12:00:30;;;;;;;0.85;0.85;;;12.00;97.60;;;;;;5080818;28;20204;-70
2021/05/06 12:03:03;;;;;;;1.20;1.10;;;11.90;96.20;;;;;;5081126;28;20692;-71
2021/05/06 12:05:50;;;;;;;1.30;1.20;;;11.70;96.60;;;;;;5090994;28;20668;-70
2021/05/06 12:08:16;;;;;;;1.00;1.00;;;11.60;96.90;;;;;;5088214;28;20215;-70
2021/05/06 12:10:43;;;;;;;1.13;1.13;;;11.40;96.10;;;;;;5083610;28;20193;-70
2021/05/06 12:13:10;;;;;;;1.40;1.30;;;11.50;96.10;;;;;;5088858;28;20331;-70
2021/05/06 12:15:37;;;;;;;1.92;1.73;;;11.50;96.90;;;;;;5091814;28;20298;-70
2021/05/06 12:18:17;;;;;;;1.70;1.60;;;11.50;96.70;;;;;;5087271;28;20772;-70
2021/05/06 12:20:53;;;;;;;1.92;1.40;;;11.40;96.30;;;;;;5095792;28;20196;-70
2021/05/06 12:23:19;;;;;;;1.67;1.58;;;11.40;96.50;;;;;;5083109;28;20222;-70
2021/05/06 12:25:46;;;;;;;1.63;1.55;;;11.20;97.00;;;;;;5094340;28;20299;-69
2021/05/06 12:28:12;;;;;;;1.55;1.45;;;11.00;97.20;;;;;;5090740;28;20291;-72
2021/05/06 12:30:39;;;;;;;1.55;1.45;;;10.90;98.40;;;;;;5074803;28;20572;-71
2021/05/06 12:33:05;;;;;;;1.50;1.40;;;10.90;98.00;;;;;;5083515;28;20204;-69
2021/05/06 12:35:32;;;;;;;1.80;1.70;;;10.90;98.40;;;;;;5088159;28;20208;-69
2021/05/06 12:37:59;;;;;;;2.10;1.88;;;10.90;99.10;;;;;;5085919;28;20355;-70
2021/05/06 12:40:27;;;;;;;2.30;2.08;;;10.80;98.80;;;;;;5083447;28;20200;-68
2021/05/06 12:42:54;;;;;;;1.92;1.83;;;10.90;98.70;;;;;;5088129;28;20207;-70
2021/05/06 12:45:31;;;;;;;2.70;1.80;;;11.00;99.60;;;;;;5087724;28;20208;-70
2021/05/06 12:47:57;;;;;;;4.68;2.60;;;10.90;99.90;;;;;;5090917;28;20207;-70
2021/05/06 12:50:26;;;;;;;3.75;2.28;;;10.80;99.90;;;;;;5085462;28;20291;-70
2021/05/06 12:52:54;;;;;;;2.08;1.92;;;10.90;99.90;;;;;;5092895;28;20230;-70
2021/05/06 12:55:24;;;;;;;3.72;2.38;;;10.80;99.90;;;;;;5089876;28;20209;-70
2021/05/06 12:58:07;;;;;;;2.75;2.10;;;10.50;99.90;;;;;;5090191;28;20697;-70
2021/05/06 13:00:36;;;;;;;3.10;2.90;;;10.30;99.90;;;;;;5092085;28;20204;-70
2021/05/06 13:03:04;;;;;;;2.60;2.40;;;10.40;99.90;;;;;;5085228;28;20287;-70
2021/05/06 13:05:32;;;;;;;3.05;2.80;;;10.50;99.90;;;;;;5092242;28;20210;-70
2021/05/06 13:07:59;;;;;;;3.20;2.90;;;10.50;99.90;;;;;;5093182;28;20715;-70
2021/05/06 13:10:34;;;;;;;2.80;2.60;;;10.50;99.90;;;;;;5094250;28;20311;-70
2021/05/06 13:13:01;;;;;;;4.32;2.97;;;10.50;99.90;;;;;;5097276;28;20274;-70
2021/05/06 13:15:29;;;;;;;3.22;2.70;;;10.30;99.90;;;;;;5088694;28;20742;-70
2021/05/06 13:17:57;;;;;;;3.15;2.95;;;10.30;99.90;;;;;;5080797;28;20224;-69
2021/05/06 13:20:26;;;;;;;4.03;3.63;;;10.30;99.90;;;;;;5088196;28;20609;-70
2021/05/06 13:23:04;;;;;;;3.10;2.90;;;10.20;99.90;;;;;;5092367;28;20199;-70
2021/05/06 13:25:43;;;;;;;4.32;3.30;;;9.90;99.90;;;;;;5088780;28;20204;-69
2021/05/06 13:28:10;;;;;;;3.95;3.65;;;9.70;99.90;;;;;;5082182;28;20226;-69
2021/05/06 13:30:36;;;;;;;3.67;3.38;;;9.60;99.90;;;;;;5089272;28;20298;-69
2021/05/06 13:33:12;;;;;;;4.78;3.90;;;9.70;99.90;;;;;;5091135;28;20227;-69
2021/05/06 13:35:38;;;;;;;3.85;3.55;;;9.60;99.90;;;;;;5095416;28;20195;-69
2021/05/06 13:38:05;;;;;;;3.95;3.65;;;9.50;99.90;;;;;;5084725;28;20224;-68
2021/05/06 13:40:31;;;;;;;4.28;3.92;;;9.60;99.90;;;;;;5082843;28;20201;-68
2021/05/06 13:42:58;;;;;;;5.90;4.80;;;9.50;99.90;;;;;;5089723;28;20211;-69
2021/05/06 13:45:24;;;;;;;5.57;5.00;;;9.40;99.90;;;;;;5091842;28;20295;-68
2021/05/06 13:47:51;;;;;;;4.90;4.35;;;9.50;99.90;;;;;;5091674;28;20428;-68
2021/05/06 13:50:18;;;;;;;5.05;4.65;;;9.60;99.90;;;;;;5092766;28;20215;-68
2021/05/06 13:52:44;;;;;;;6.07;5.57;;;9.60;99.90;;;;;;5092008;28;20649;-69
2021/05/06 13:55:13;;;;;;;5.88;5.32;;;9.60;99.90;;;;;;5089643;28;20766;-69
2021/05/06 13:57:40;;;;;;;6.15;5.68;;;9.70;99.90;;;;;;5094736;28;20227;-69
2021/05/06 14:00:09;;;;;;;4.70;4.40;;;9.50;99.90;;;;;;5097778;28;20204;-69
2021/05/06 14:02:35;;;;;;;3.67;3.38;;;9.60;99.90;;;;;;5093241;28;20207;-69
2021/05/06 14:05:02;;;;;;;4.13;3.83;;;9.60;99.90;;;;;;5091333;28;20295;-69
2021/05/06 14:07:29;;;;;;;3.72;3.42;;;9.50;99.90;;;;;;5089770;28;20208;-68
2021/05/06 14:09:55;;;;;;;4.70;4.25;;;9.60;99.90;;;;;;5086785;28;20342;-69
2021/05/06 14:12:22;;;;;;;6.13;4.00;;;9.60;99.90;;;;;;5086134;28;20205;-69
2021/05/06 14:14:48;;;;;;;4.30;3.90;;;9.70;99.90;;;;;;5093772;28;20729;-69
2021/05/06 14:17:16;;;;;;;4.35;3.90;;;9.90;99.90;;;;;;5087725;28;20262;-69
2021/05/06 14:19:42;;;;;;;4.50;4.20;;;9.80;99.90;;;;;;5085412;28;20208;-69
2021/05/06 14:22:09;;;;;;;5.10;4.35;;;9.90;99.90;;;;;;5091767;28;20226;-69
2021/05/06 14:24:35;;;;;;;4.80;4.30;;;9.70;99.90;;;;;;5090553;28;20206;-69
2021/05/06 14:27:02;;;;;;;6.38;4.60;;;9.80;99.90;;;;;;5090028;28;20210;-69
2021/05/06 14:29:28;;;;;;;4.63;4.22;;;9.70;99.90;;;;;;5086024;28;20205;-69
2021/05/06 14:31:54;;;;;;;4.00;3.58;;;9.80;99.90;;;;;;5087918;28;20200;-69
2021/05/06 14:34:22;;;;;;;4.90;3.65;;;9.80;99.90;;;;;;5094404;28;20283;-69
2021/05/06 14:36:48;;;;;;;3.20;2.92;;;9.90;99.90;;;;;;5087235;28;20668;-69
2021/05/06 14:39:14;;;;;;;3.90;3.53;;;9.80;99.90;;;;;;5087939;28;20374;-68
2021/05/06 14:41:42;;;;;;;3.80;3.50;;;9.80;99.90;;;;;;5095387;28;20558;-68
2021/05/06 14:44:09;;;;;;;4.57;3.00;;;9.70;99.90;;;;;;5085878;28;20293;-68
2021/05/06 14:46:36;;;;;;;4.53;3.35;;;9.80;99.90;;;;;;5079081;28;20212;-68
2021/05/06 14:49:03;;;;;;;3.85;3.55;;;9.80;99.90;;;;;;5094336;28;20307;-68
2021/05/06 14:51:30;;;;;;;4.65;2.95;;;9.80;99.90;;;;;;5090424;28;20215;-68
2021/05/06 14:53:56;;;;;;;3.00;2.80;;;9.70;99.90;;;;;;5085474;28;20193;-68
2021/05/06 14:56:22;;;;;;;3.58;3.28;;;9.70;99.90;;;;;;5084290;28;20228;-68
2021/05/06 14:58:49;;;;;;;2.83;2.63;;;9.70;99.90;;;;;;5091913;28;20210;-68
2021/05/06 15:01:15;;;;;;;2.80;2.60;;;9.70;99.90;;;;;;5087811;28;20311;-68
2021/05/06 15:03:41;;;;;;;3.17;2.97;;;9.70;99.90;;;;;;5084445;28;20303;-69
2021/05/06 15:06:09;;;;;;;2.85;2.75;;;9.80;99.90;;;;;;5085160;28;20200;-68
2021/05/06 15:08:42;;;;;;;2.80;2.60;;;9.60;99.90;;;;;;5086014;28;20212;-67
2021/05/06 15:11:08;;;;;;;3.15;2.78;;;9.60;99.90;;;;;;5082591;28;20208;-70
2021/05/06 15:13:35;;;;;;;2.70;2.50;;;9.50;99.90;;;;;;5095624;28;20223;-68
2021/05/06 15:16:01;;;;;;;2.40;2.30;;;9.50;99.90;;;;;;5090077;28;22071;-69
2021/05/06 15:18:27;;;;;;;3.28;2.90;;;9.70;99.90;;;;;;5089046;28;20233;-69
2021/05/06 15:20:53;;;;;;;2.40;2.20;;;9.70;99.90;;;;;;5083179;28;20350;-69
2021/05/06 15:23:20;;;;;;;2.40;2.20;;;9.60;99.90;;;;;;5093651;28;20223;-69
2021/05/06 15:25:47;;;;;;;2.33;2.10;;;9.50;99.90;;;;;;5086745;28;20208;-69
2021/05/06 15:28:14;;;;;;;4.32;3.03;;;9.70;99.90;;;;;;5087646;28;20201;-69
2021/05/06 15:30:40;;;;;;;3.65;3.00;;;9.80;99.90;;;;;;5088407;28;20309;-69
2021/05/06 15:33:07;;;;;;;2.13;2.03;;;9.70;99.90;;;;;;5093581;28;20208;-69
2021/05/06 15:35:34;;;;;;;3.25;2.50;;;9.70;99.90;;;;;;5088601;28;20204;-69
2021/05/06 15:38:00;;;;;;;2.75;2.55;;;9.70;99.90;;;;;;5078738;28;20228;-69
2021/05/06 15:40:30;;;;;;;3.03;2.55;;;9.70;99.90;;;;;;5086669;28;20200;-68
2021/05/06 15:42:57;;;;;;;2.40;2.30;;;9.70;99.90;;;;;;5083112;28;20197;-68